UWT YCBG-YCBG
Flight info
| Callsign | UWT |
|---|---|
| Flight time | 3h 28m |
| Altitude | 4500 |
| Route | VFR |
| Aircraft | AS50/M-SDE3FGHIRWY/LB1 |
Departure
| Time | 2026-04-22 05:05 |
|---|---|
| Airport | Cambridge Aerodrome (YCBG) |
Arrival
| Time | 2026-04-22 08:33 |
|---|---|
| Airport | Cambridge Aerodrome (YCBG) |
| Time | Latitude | Longitude | Altitude | Speed | Heading |
|---|---|---|---|---|---|
| 2026-04-22 04:53 | -42.82926 | 147.47628 | 36 ft | 0 kts | 355° |
| 2026-04-22 05:04 | -42.82921 | 147.47639 | 66 ft | 6 kts | 4° |
| 2026-04-22 05:04 | -42.82796 | 147.47709 | 220 ft | 41 kts | 19° |
| 2026-04-22 05:04 | -42.82475 | 147.48105 | 374 ft | 80 kts | 64° |
| 2026-04-22 05:04 | -42.82294 | 147.48910 | 531 ft | 95 kts | 74° |
| 2026-04-22 05:05 | -42.82112 | 147.49784 | 730 ft | 98 kts | 73° |
| 2026-04-22 05:05 | -42.81905 | 147.50680 | 952 ft | 100 kts | 71° |
| 2026-04-22 05:05 | -42.81673 | 147.51582 | 1155 ft | 101 kts | 69° |
| 2026-04-22 05:05 | -42.81420 | 147.52487 | 1426 ft | 103 kts | 68° |
| 2026-04-22 05:06 | -42.81242 | 147.53439 | 1750 ft | 105 kts | 84° |
| 2026-04-22 05:06 | -42.81168 | 147.54428 | 2030 ft | 105 kts | 86° |
| 2026-04-22 05:06 | -42.81114 | 147.55456 | 2091 ft | 117 kts | 87° |
| 2026-04-22 05:06 | -42.81063 | 147.56601 | 2078 ft | 126 kts | 87° |
| 2026-04-22 05:07 | -42.81011 | 147.57819 | 2074 ft | 130 kts | 87° |
| 2026-04-22 05:07 | -42.80956 | 147.59057 | 2073 ft | 132 kts | 87° |
| 2026-04-22 05:07 | -42.80898 | 147.60313 | 2072 ft | 133 kts | 87° |
| 2026-04-22 05:07 | -42.80838 | 147.61570 | 2074 ft | 134 kts | 86° |
| 2026-04-22 05:08 | -42.80798 | 147.62409 | 2073 ft | 134 kts | 86° |
| 2026-04-22 05:08 | -42.80716 | 147.64094 | 2074 ft | 134 kts | 86° |
| 2026-04-22 05:08 | -42.80653 | 147.65364 | 2075 ft | 135 kts | 86° |
| 2026-04-22 05:08 | -42.80591 | 147.66644 | 2073 ft | 134 kts | 86° |
| 2026-04-22 05:09 | -42.80549 | 147.67486 | 2074 ft | 134 kts | 86° |
| 2026-04-22 05:09 | -42.80486 | 147.68761 | 2072 ft | 134 kts | 86° |
| 2026-04-22 05:09 | -42.80424 | 147.70029 | 2073 ft | 134 kts | 86° |
| 2026-04-22 05:09 | -42.80360 | 147.71297 | 2074 ft | 135 kts | 86° |
| 2026-04-22 05:10 | -42.80296 | 147.72569 | 2072 ft | 135 kts | 87° |
| 2026-04-22 05:10 | -42.80225 | 147.73840 | 2079 ft | 136 kts | 86° |
| 2026-04-22 05:10 | -42.80159 | 147.75132 | 2067 ft | 135 kts | 87° |
| 2026-04-22 05:10 | -42.80091 | 147.76387 | 2075 ft | 133 kts | 86° |
| 2026-04-22 05:11 | -42.80025 | 147.77649 | 2074 ft | 134 kts | 86° |
| 2026-04-22 05:11 | -42.79959 | 147.78923 | 2073 ft | 135 kts | 86° |
| 2026-04-22 05:11 | -42.79893 | 147.80204 | 2074 ft | 136 kts | 86° |
| 2026-04-22 05:11 | -42.79816 | 147.81484 | 2071 ft | 136 kts | 80° |
| 2026-04-22 05:12 | -42.79430 | 147.82643 | 2075 ft | 135 kts | 57° |
| 2026-04-22 05:12 | -42.78878 | 147.83667 | 2070 ft | 133 kts | 50° |
| 2026-04-22 05:12 | -42.78298 | 147.84623 | 2074 ft | 130 kts | 48° |
| 2026-04-22 05:12 | -42.77717 | 147.85575 | 2074 ft | 131 kts | 49° |
| 2026-04-22 05:13 | -42.77143 | 147.86534 | 2074 ft | 131 kts | 49° |
| 2026-04-22 05:13 | -42.76577 | 147.87506 | 2073 ft | 131 kts | 50° |
| 2026-04-22 05:13 | -42.76025 | 147.88476 | 2074 ft | 131 kts | 50° |
| 2026-04-22 05:13 | -42.75475 | 147.89462 | 2073 ft | 131 kts | 51° |
| 2026-04-22 05:14 | -42.74926 | 147.90444 | 2070 ft | 131 kts | 48° |
| 2026-04-22 05:14 | -42.74325 | 147.91386 | 2042 ft | 132 kts | 43° |
| 2026-04-22 05:14 | -42.73679 | 147.92296 | 1745 ft | 135 kts | 43° |
| 2026-04-22 05:14 | -42.73040 | 147.93164 | 1490 ft | 122 kts | 43° |
| 2026-04-22 05:15 | -42.72451 | 147.93909 | 1285 ft | 112 kts | 29° |
| 2026-04-22 05:15 | -42.71715 | 147.94152 | 917 ft | 109 kts | 349° |
| 2026-04-22 05:15 | -42.71152 | 147.93686 | 638 ft | 84 kts | 285° |
| 2026-04-22 05:15 | -42.71358 | 147.93117 | 402 ft | 66 kts | 210° |
| 2026-04-22 05:16 | -42.71705 | 147.93227 | 206 ft | 44 kts | 136° |
| 2026-04-22 05:16 | -42.71793 | 147.93512 | 75 ft | 17 kts | 170° |
| 2026-04-22 05:16 | -42.71806 | 147.93535 | 50 ft | 1 kts | 175° |
| 2026-04-22 05:16 | -42.71810 | 147.93536 | 48 ft | 0 kts | 197° |
| 2026-04-22 05:18 | -42.71869 | 147.93529 | 91 ft | 15 kts | 219° |
| 2026-04-22 05:18 | -42.71967 | 147.93489 | 71 ft | 16 kts | 173° |
| 2026-04-22 05:19 | -42.71975 | 147.93558 | 75 ft | 8 kts | 79° |
| 2026-04-22 05:19 | -42.71783 | 147.93538 | 251 ft | 58 kts | 334° |
| 2026-04-22 05:19 | -42.71563 | 147.92935 | 391 ft | 83 kts | 272° |
| 2026-04-22 05:19 | -42.71708 | 147.92282 | 820 ft | 62 kts | 253° |
| 2026-04-22 05:20 | -42.71879 | 147.91801 | 941 ft | 55 kts | 253° |
| 2026-04-22 05:20 | -42.72057 | 147.91324 | 1000 ft | 58 kts | 251° |
| 2026-04-22 05:20 | -42.72301 | 147.90869 | 1025 ft | 67 kts | 220° |
| 2026-04-22 05:20 | -42.72802 | 147.90891 | 994 ft | 74 kts | 181° |
| 2026-04-22 05:21 | -42.73323 | 147.90984 | 974 ft | 77 kts | 186° |
| 2026-04-22 05:21 | -42.73828 | 147.91103 | 1010 ft | 70 kts | 110° |
| 2026-04-22 05:21 | -42.73514 | 147.91512 | 878 ft | 84 kts | 11° |
| 2026-04-22 05:21 | -42.72881 | 147.91682 | 689 ft | 100 kts | 5° |
| 2026-04-22 05:22 | -42.72212 | 147.91860 | 660 ft | 93 kts | 6° |
| 2026-04-22 05:22 | -42.71912 | 147.91742 | 796 ft | 55 kts | 227° |
| 2026-04-22 05:22 | -42.72365 | 147.91517 | 699 ft | 82 kts | 194° |
| 2026-04-22 05:22 | -42.72935 | 147.91314 | 741 ft | 85 kts | 192° |
| 2026-04-22 05:23 | -42.73505 | 147.91143 | 827 ft | 85 kts | 189° |
| 2026-04-22 05:23 | -42.73464 | 147.91381 | 923 ft | 69 kts | 7° |
| 2026-04-22 05:23 | -42.72841 | 147.91644 | 676 ft | 110 kts | 8° |
| 2026-04-22 05:23 | -42.72090 | 147.91938 | 669 ft | 105 kts | 6° |
| 2026-04-22 05:24 | -42.71714 | 147.91770 | 1032 ft | 61 kts | 239° |
| 2026-04-22 05:24 | -42.72220 | 147.91312 | 741 ft | 106 kts | 201° |
| 2026-04-22 05:24 | -42.72864 | 147.90939 | 842 ft | 92 kts | 198° |
| 2026-04-22 05:24 | -42.73469 | 147.90820 | 934 ft | 92 kts | 168° |
| 2026-04-22 05:25 | -42.73676 | 147.91303 | 1116 ft | 71 kts | 17° |
| 2026-04-22 05:25 | -42.73146 | 147.91531 | 990 ft | 87 kts | 354° |
| 2026-04-22 05:25 | -42.72536 | 147.91711 | 771 ft | 87 kts | 359° |
| 2026-04-22 05:25 | -42.71959 | 147.91913 | 740 ft | 70 kts | 346° |
| 2026-04-22 05:26 | -42.71903 | 147.91628 | 689 ft | 62 kts | 197° |
| 2026-04-22 05:26 | -42.72433 | 147.91523 | 513 ft | 82 kts | 181° |
| 2026-04-22 05:26 | -42.72988 | 147.91430 | 472 ft | 76 kts | 179° |
| 2026-04-22 05:26 | -42.73477 | 147.91373 | 567 ft | 61 kts | 174° |
| 2026-04-22 05:27 | -42.73721 | 147.91424 | 673 ft | 33 kts | 351° |
| 2026-04-22 05:27 | -42.73360 | 147.91476 | 570 ft | 65 kts | 354° |
| 2026-04-22 05:27 | -42.72867 | 147.91587 | 492 ft | 77 kts | 2° |
| 2026-04-22 05:27 | -42.72351 | 147.91731 | 503 ft | 71 kts | 0° |
| 2026-04-22 05:28 | -42.71892 | 147.91830 | 594 ft | 49 kts | 319° |
| 2026-04-22 05:28 | -42.72019 | 147.91645 | 571 ft | 61 kts | 185° |
| 2026-04-22 05:28 | -42.72541 | 147.91511 | 416 ft | 77 kts | 186° |
| 2026-04-22 05:28 | -42.73001 | 147.91412 | 481 ft | 60 kts | 178° |
| 2026-04-22 05:29 | -42.73349 | 147.91340 | 573 ft | 41 kts | 176° |
| 2026-04-22 05:29 | -42.73592 | 147.91328 | 637 ft | 28 kts | 120° |
| 2026-04-22 05:29 | -42.73483 | 147.91482 | 575 ft | 39 kts | 5° |
| 2026-04-22 05:29 | -42.73141 | 147.91614 | 516 ft | 59 kts | 2° |
| 2026-04-22 05:30 | -42.72717 | 147.91800 | 499 ft | 65 kts | 10° |
| 2026-04-22 05:30 | -42.72388 | 147.91827 | 591 ft | 32 kts | 239° |
| 2026-04-22 05:30 | -42.72685 | 147.91595 | 447 ft | 67 kts | 188° |
| 2026-04-22 05:30 | -42.73091 | 147.91421 | 456 ft | 55 kts | 182° |
| 2026-04-22 05:31 | -42.73410 | 147.91307 | 545 ft | 39 kts | 169° |
| 2026-04-22 05:31 | -42.73585 | 147.91328 | 601 ft | 19 kts | 305° |
| 2026-04-22 05:31 | -42.73538 | 147.91387 | 667 ft | 21 kts | 302° |
| 2026-04-22 05:31 | -42.73493 | 147.90936 | 760 ft | 74 kts | 264° |
| 2026-04-22 05:32 | -42.73567 | 147.90145 | 887 ft | 84 kts | 260° |
| 2026-04-22 05:32 | -42.73886 | 147.89442 | 927 ft | 104 kts | 208° |
| 2026-04-22 05:32 | -42.74725 | 147.89433 | 787 ft | 128 kts | 180° |
| 2026-04-22 05:32 | -42.75527 | 147.89179 | 800 ft | 119 kts | 235° |
| 2026-04-22 05:33 | -42.75453 | 147.88121 | 808 ft | 117 kts | 296° |
| 2026-04-22 05:33 | -42.75144 | 147.87149 | 794 ft | 104 kts | 278° |
| 2026-04-22 05:33 | -42.74984 | 147.86305 | 904 ft | 75 kts | 295° |
| 2026-04-22 05:33 | -42.74713 | 147.85958 | 1146 ft | 38 kts | 311° |
| 2026-04-22 05:34 | -42.74606 | 147.85988 | 1227 ft | 29 kts | 130° |
| 2026-04-22 05:34 | -42.74871 | 147.86213 | 939 ft | 51 kts | 160° |
| 2026-04-22 05:34 | -42.75209 | 147.86391 | 624 ft | 53 kts | 155° |
| 2026-04-22 05:34 | -42.75203 | 147.86573 | 601 ft | 37 kts | 335° |
| 2026-04-22 05:35 | -42.74894 | 147.86400 | 829 ft | 48 kts | 308° |
| 2026-04-22 05:35 | -42.74681 | 147.86072 | 1158 ft | 43 kts | 302° |
| 2026-04-22 05:35 | -42.74415 | 147.86194 | 1449 ft | 65 kts | 46° |
| 2026-04-22 05:35 | -42.74094 | 147.86838 | 1434 ft | 101 kts | 60° |
| 2026-04-22 05:36 | -42.73747 | 147.87788 | 1272 ft | 114 kts | 76° |
| 2026-04-22 05:36 | -42.74053 | 147.88647 | 1043 ft | 108 kts | 156° |
| 2026-04-22 05:36 | -42.74681 | 147.89135 | 807 ft | 95 kts | 173° |
| 2026-04-22 05:36 | -42.75141 | 147.88943 | 701 ft | 72 kts | 261° |
| 2026-04-22 05:37 | -42.75318 | 147.88285 | 622 ft | 78 kts | 249° |
| 2026-04-22 05:37 | -42.75611 | 147.87665 | 612 ft | 67 kts | 278° |
| 2026-04-22 05:37 | -42.75460 | 147.87700 | 647 ft | 58 kts | 64° |
| 2026-04-22 05:37 | -42.75232 | 147.88228 | 673 ft | 66 kts | 54° |
| 2026-04-22 05:38 | -42.74966 | 147.88782 | 555 ft | 70 kts | 56° |
| 2026-04-22 05:38 | -42.74702 | 147.88987 | 481 ft | 36 kts | 262° |
| 2026-04-22 05:38 | -42.74996 | 147.88705 | 428 ft | 68 kts | 221° |
| 2026-04-22 05:38 | -42.75329 | 147.88238 | 546 ft | 70 kts | 240° |
| 2026-04-22 05:39 | -42.75553 | 147.87611 | 610 ft | 76 kts | 254° |
| 2026-04-22 05:39 | -42.75280 | 147.87180 | 656 ft | 87 kts | 20° |
| 2026-04-22 05:39 | -42.74841 | 147.87824 | 675 ft | 97 kts | 54° |
| 2026-04-22 05:39 | -42.74482 | 147.88518 | 669 ft | 82 kts | 62° |
| 2026-04-22 05:40 | -42.74459 | 147.88862 | 440 ft | 29 kts | 229° |
| 2026-04-22 05:40 | -42.74740 | 147.88413 | 480 ft | 78 kts | 238° |
| 2026-04-22 05:40 | -42.75087 | 147.87758 | 595 ft | 89 kts | 237° |
| 2026-04-22 05:40 | -42.75464 | 147.87347 | 675 ft | 52 kts | 92° |
| 2026-04-22 05:41 | -42.75195 | 147.87754 | 563 ft | 65 kts | 37° |
| 2026-04-22 05:41 | -42.74950 | 147.88348 | 624 ft | 86 kts | 62° |
| 2026-04-22 05:41 | -42.74589 | 147.89000 | 522 ft | 79 kts | 27° |
| 2026-04-22 05:41 | -42.74246 | 147.88766 | 466 ft | 55 kts | 299° |
| 2026-04-22 05:42 | -42.74412 | 147.88435 | 451 ft | 62 kts | 221° |
| 2026-04-22 05:42 | -42.74718 | 147.87911 | 544 ft | 80 kts | 239° |
| 2026-04-22 05:42 | -42.75061 | 147.87247 | 620 ft | 88 kts | 234° |
| 2026-04-22 05:42 | -42.74908 | 147.87126 | 689 ft | 70 kts | 46° |
| 2026-04-22 05:43 | -42.74605 | 147.87782 | 627 ft | 86 kts | 58° |
| 2026-04-22 05:43 | -42.74301 | 147.88476 | 680 ft | 85 kts | 59° |
| 2026-04-22 05:43 | -42.74158 | 147.88551 | 736 ft | 57 kts | 207° |
| 2026-04-22 05:43 | -42.74392 | 147.88005 | 623 ft | 72 kts | 249° |
| 2026-04-22 05:44 | -42.74735 | 147.87469 | 628 ft | 76 kts | 233° |
| 2026-04-22 05:44 | -42.75056 | 147.86887 | 625 ft | 77 kts | 243° |
| 2026-04-22 05:44 | -42.74916 | 147.86786 | 773 ft | 62 kts | 50° |
| 2026-04-22 05:44 | -42.74618 | 147.87401 | 657 ft | 88 kts | 57° |
| 2026-04-22 05:45 | -42.74275 | 147.88116 | 642 ft | 91 kts | 58° |
| 2026-04-22 05:45 | -42.73961 | 147.88618 | 705 ft | 31 kts | 311° |
| 2026-04-22 05:45 | -42.74080 | 147.88369 | 615 ft | 49 kts | 242° |
| 2026-04-22 05:45 | -42.74338 | 147.87842 | 621 ft | 80 kts | 235° |
| 2026-04-22 05:46 | -42.74649 | 147.87225 | 727 ft | 74 kts | 242° |
| 2026-04-22 05:46 | -42.74876 | 147.86596 | 734 ft | 58 kts | 279° |
| 2026-04-22 05:46 | -42.74668 | 147.86827 | 728 ft | 69 kts | 60° |
| 2026-04-22 05:46 | -42.74422 | 147.87413 | 717 ft | 70 kts | 63° |
| 2026-04-22 05:47 | -42.74189 | 147.88012 | 724 ft | 73 kts | 62° |
| 2026-04-22 05:47 | -42.73922 | 147.88327 | 782 ft | 33 kts | 269° |
| 2026-04-22 05:47 | -42.74093 | 147.87987 | 703 ft | 54 kts | 248° |
| 2026-04-22 05:47 | -42.74261 | 147.87527 | 729 ft | 51 kts | 249° |
| 2026-04-22 05:48 | -42.74454 | 147.87125 | 765 ft | 53 kts | 244° |
| 2026-04-22 05:48 | -42.74608 | 147.86702 | 816 ft | 40 kts | 250° |
| 2026-04-22 05:48 | -42.74646 | 147.86533 | 897 ft | 2 kts | 252° |
| 2026-04-22 05:48 | -42.74645 | 147.86468 | 1027 ft | 27 kts | 271° |
| 2026-04-22 05:49 | -42.74379 | 147.86753 | 967 ft | 99 kts | 63° |
| 2026-04-22 05:49 | -42.74027 | 147.87726 | 884 ft | 122 kts | 62° |
| 2026-04-22 05:49 | -42.73685 | 147.88269 | 1094 ft | 40 kts | 268° |
| 2026-04-22 05:49 | -42.73892 | 147.87775 | 1010 ft | 74 kts | 243° |
| 2026-04-22 05:50 | -42.74054 | 147.87039 | 1082 ft | 86 kts | 254° |
| 2026-04-22 05:50 | -42.74467 | 147.86422 | 1142 ft | 84 kts | 264° |
| 2026-04-22 05:50 | -42.74179 | 147.86639 | 1214 ft | 102 kts | 68° |
| 2026-04-22 05:50 | -42.74392 | 147.87706 | 979 ft | 132 kts | 117° |
| 2026-04-22 05:51 | -42.74618 | 147.88918 | 927 ft | 132 kts | 88° |
| 2026-04-22 05:51 | -42.74207 | 147.89970 | 902 ft | 125 kts | 41° |
| 2026-04-22 05:51 | -42.73507 | 147.90320 | 1119 ft | 94 kts | 345° |
| 2026-04-22 05:51 | -42.73487 | 147.89844 | 1230 ft | 86 kts | 193° |
| 2026-04-22 05:52 | -42.74274 | 147.90009 | 548 ft | 123 kts | 148° |
| 2026-04-22 05:52 | -42.74121 | 147.90136 | 373 ft | 46 kts | 326° |
| 2026-04-22 05:52 | -42.73958 | 147.90034 | 547 ft | 40 kts | 313° |
| 2026-04-22 05:52 | -42.73568 | 147.89855 | 895 ft | 56 kts | 56° |
| 2026-04-22 05:53 | -42.73944 | 147.90043 | 616 ft | 99 kts | 174° |
| 2026-04-22 05:53 | -42.74274 | 147.90461 | 509 ft | 69 kts | 320° |
| 2026-04-22 05:53 | -42.73792 | 147.90098 | 589 ft | 81 kts | 352° |
| 2026-04-22 05:53 | -42.73437 | 147.90084 | 832 ft | 70 kts | 352° |
| 2026-04-22 05:54 | -42.73490 | 147.90467 | 753 ft | 103 kts | 175° |
| 2026-04-22 05:54 | -42.74243 | 147.90492 | 522 ft | 50 kts | 12° |
| 2026-04-22 05:54 | -42.73950 | 147.90469 | 516 ft | 81 kts | 332° |
| 2026-04-22 05:54 | -42.73481 | 147.90151 | 871 ft | 58 kts | 314° |
| 2026-04-22 05:55 | -42.73766 | 147.89713 | 852 ft | 92 kts | 215° |
| 2026-04-22 05:55 | -42.74374 | 147.89191 | 721 ft | 108 kts | 216° |
| 2026-04-22 05:55 | -42.74643 | 147.88665 | 656 ft | 55 kts | 37° |
| 2026-04-22 05:55 | -42.74260 | 147.89053 | 530 ft | 82 kts | 49° |
| 2026-04-22 05:56 | -42.73849 | 147.89519 | 702 ft | 69 kts | 37° |
| 2026-04-22 05:56 | -42.73517 | 147.89802 | 949 ft | 45 kts | 43° |
| 2026-04-22 05:56 | -42.73489 | 147.90038 | 947 ft | 54 kts | 198° |
| 2026-04-22 05:56 | -42.73896 | 147.89721 | 728 ft | 80 kts | 227° |
| 2026-04-22 05:57 | -42.74487 | 147.89271 | 478 ft | 101 kts | 214° |
| 2026-04-22 05:57 | -42.74996 | 147.89014 | 424 ft | 39 kts | 86° |
| 2026-04-22 05:57 | -42.74714 | 147.89292 | 320 ft | 71 kts | 24° |
| 2026-04-22 05:57 | -42.74260 | 147.89667 | 459 ft | 77 kts | 29° |
| 2026-04-22 05:58 | -42.73824 | 147.90044 | 669 ft | 69 kts | 31° |
| 2026-04-22 05:58 | -42.73411 | 147.90408 | 819 ft | 70 kts | 31° |
| 2026-04-22 05:58 | -42.72980 | 147.90747 | 896 ft | 69 kts | 3° |
| 2026-04-22 05:58 | -42.73054 | 147.90354 | 794 ft | 79 kts | 212° |
| 2026-04-22 05:59 | -42.73537 | 147.90013 | 866 ft | 77 kts | 215° |
| 2026-04-22 05:59 | -42.74029 | 147.89642 | 834 ft | 87 kts | 216° |
| 2026-04-22 05:59 | -42.74595 | 147.89193 | 726 ft | 102 kts | 216° |
| 2026-04-22 05:59 | -42.75149 | 147.88589 | 645 ft | 102 kts | 236° |
| 2026-04-22 06:00 | -42.75492 | 147.87887 | 664 ft | 97 kts | 242° |
| 2026-04-22 06:00 | -42.75801 | 147.87138 | 775 ft | 89 kts | 244° |
| 2026-04-22 06:00 | -42.76096 | 147.86398 | 829 ft | 91 kts | 246° |
| 2026-04-22 06:00 | -42.76273 | 147.85578 | 863 ft | 89 kts | 270° |
| 2026-04-22 06:01 | -42.76096 | 147.84800 | 957 ft | 87 kts | 297° |
| 2026-04-22 06:01 | -42.75651 | 147.84257 | 1015 ft | 86 kts | 322° |
| 2026-04-22 06:01 | -42.75152 | 147.83842 | 1087 ft | 83 kts | 323° |
| 2026-04-22 06:01 | -42.74660 | 147.83473 | 1212 ft | 78 kts | 328° |
| 2026-04-22 06:02 | -42.74149 | 147.83222 | 1308 ft | 81 kts | 354° |
| 2026-04-22 06:02 | -42.73706 | 147.83666 | 1418 ft | 86 kts | 46° |
| 2026-04-22 06:02 | -42.73324 | 147.84315 | 1487 ft | 94 kts | 52° |
| 2026-04-22 06:02 | -42.72979 | 147.85116 | 1551 ft | 98 kts | 60° |
| 2026-04-22 06:03 | -42.72659 | 147.85924 | 1666 ft | 97 kts | 60° |
| 2026-04-22 06:03 | -42.72348 | 147.86714 | 1798 ft | 93 kts | 60° |
| 2026-04-22 06:03 | -42.72038 | 147.87499 | 1867 ft | 93 kts | 60° |
| 2026-04-22 06:03 | -42.71729 | 147.88288 | 1917 ft | 100 kts | 60° |
| 2026-04-22 06:04 | -42.71392 | 147.89149 | 1893 ft | 106 kts | 60° |
| 2026-04-22 06:04 | -42.71045 | 147.90030 | 1899 ft | 106 kts | 59° |
| 2026-04-22 06:04 | -42.70891 | 147.91008 | 1897 ft | 111 kts | 104° |
| 2026-04-22 06:04 | -42.71324 | 147.91833 | 1898 ft | 107 kts | 144° |
| 2026-04-22 06:05 | -42.71927 | 147.92433 | 1899 ft | 107 kts | 152° |
| 2026-04-22 06:05 | -42.72539 | 147.92974 | 1898 ft | 104 kts | 153° |
| 2026-04-22 06:05 | -42.73206 | 147.93212 | 1902 ft | 100 kts | 199° |
| 2026-04-22 06:05 | -42.73697 | 147.92623 | 1898 ft | 94 kts | 243° |
| 2026-04-22 06:06 | -42.73953 | 147.91803 | 1898 ft | 94 kts | 253° |
| 2026-04-22 06:06 | -42.74156 | 147.90970 | 1898 ft | 93 kts | 255° |
| 2026-04-22 06:06 | -42.74362 | 147.90133 | 1864 ft | 94 kts | 255° |
| 2026-04-22 06:06 | -42.74632 | 147.89264 | 1596 ft | 107 kts | 240° |
| 2026-04-22 06:07 | -42.75214 | 147.88561 | 1263 ft | 116 kts | 215° |
| 2026-04-22 06:07 | -42.75869 | 147.88030 | 1116 ft | 104 kts | 217° |
| 2026-04-22 06:07 | -42.76094 | 147.87230 | 840 ft | 93 kts | 279° |
| 2026-04-22 06:07 | -42.75958 | 147.86414 | 721 ft | 83 kts | 283° |
| 2026-04-22 06:08 | -42.75804 | 147.85704 | 628 ft | 74 kts | 285° |
| 2026-04-22 06:08 | -42.76015 | 147.85608 | 478 ft | 68 kts | 112° |
| 2026-04-22 06:08 | -42.76170 | 147.85994 | 226 ft | 12 kts | 199° |
| 2026-04-22 06:08 | -42.76193 | 147.86014 | 166 ft | 3 kts | 323° |
| 2026-04-22 06:09 | -42.76189 | 147.86009 | 161 ft | 0 kts | 316° |
| 2026-04-22 06:16 | -42.76189 | 147.85989 | 190 ft | 3 kts | 289° |
| 2026-04-22 06:16 | -42.76187 | 147.85976 | 182 ft | 1 kts | 291° |
| 2026-04-22 06:16 | -42.76204 | 147.85962 | 389 ft | 8 kts | 238° |
| 2026-04-22 06:17 | -42.76260 | 147.85919 | 683 ft | 8 kts | 246° |
| 2026-04-22 06:17 | -42.76330 | 147.85794 | 884 ft | 35 kts | 256° |
| 2026-04-22 06:17 | -42.76070 | 147.85353 | 850 ft | 81 kts | 317° |
| 2026-04-22 06:17 | -42.75561 | 147.84822 | 781 ft | 100 kts | 319° |
| 2026-04-22 06:18 | -42.75066 | 147.84215 | 959 ft | 85 kts | 311° |
| 2026-04-22 06:18 | -42.74693 | 147.83680 | 1227 ft | 71 kts | 309° |
| 2026-04-22 06:18 | -42.74248 | 147.83415 | 1327 ft | 89 kts | 22° |
| 2026-04-22 06:18 | -42.73823 | 147.84090 | 1433 ft | 99 kts | 51° |
| 2026-04-22 06:19 | -42.73482 | 147.84901 | 1663 ft | 98 kts | 61° |
| 2026-04-22 06:19 | -42.73156 | 147.85715 | 1867 ft | 97 kts | 59° |
| 2026-04-22 06:19 | -42.72820 | 147.86512 | 2052 ft | 96 kts | 58° |
| 2026-04-22 06:19 | -42.72478 | 147.87297 | 2189 ft | 97 kts | 57° |
| 2026-04-22 06:20 | -42.72135 | 147.88098 | 2059 ft | 106 kts | 60° |
| 2026-04-22 06:20 | -42.71779 | 147.88941 | 1737 ft | 96 kts | 60° |
| 2026-04-22 06:20 | -42.71458 | 147.89686 | 1429 ft | 87 kts | 60° |
| 2026-04-22 06:20 | -42.71159 | 147.90337 | 1175 ft | 78 kts | 58° |
| 2026-04-22 06:21 | -42.70894 | 147.90877 | 1026 ft | 21 kts | 54° |
| 2026-04-22 06:21 | -42.70881 | 147.90729 | 1412 ft | 28 kts | 237° |
| 2026-04-22 06:21 | -42.71029 | 147.90486 | 1667 ft | 36 kts | 243° |
| 2026-04-22 06:21 | -42.71201 | 147.90149 | 1673 ft | 49 kts | 244° |
| 2026-04-22 06:22 | -42.71418 | 147.89682 | 1675 ft | 67 kts | 244° |
| 2026-04-22 06:22 | -42.71668 | 147.89115 | 1670 ft | 69 kts | 244° |
| 2026-04-22 06:22 | -42.71924 | 147.88549 | 1676 ft | 74 kts | 243° |
| 2026-04-22 06:22 | -42.72197 | 147.87938 | 1698 ft | 77 kts | 240° |
| 2026-04-22 06:23 | -42.72500 | 147.87262 | 1853 ft | 93 kts | 242° |
| 2026-04-22 06:23 | -42.72844 | 147.86454 | 1843 ft | 102 kts | 242° |
| 2026-04-22 06:23 | -42.73205 | 147.85581 | 1791 ft | 106 kts | 244° |
| 2026-04-22 06:23 | -42.73550 | 147.84739 | 1504 ft | 96 kts | 245° |
| 2026-04-22 06:24 | -42.73896 | 147.84012 | 1543 ft | 48 kts | 256° |
| 2026-04-22 06:24 | -42.74056 | 147.83687 | 1522 ft | 29 kts | 243° |
| 2026-04-22 06:24 | -42.74216 | 147.83358 | 1418 ft | 49 kts | 262° |
| 2026-04-22 06:25 | -42.74009 | 147.83131 | 1420 ft | 45 kts | 98° |
| 2026-04-22 06:25 | -42.74079 | 147.83376 | 1400 ft | 21 kts | 60° |
| 2026-04-22 06:25 | -42.73934 | 147.83668 | 1320 ft | 55 kts | 62° |
| 2026-04-22 06:25 | -42.73600 | 147.84163 | 1380 ft | 86 kts | 51° |
| 2026-04-22 06:26 | -42.73225 | 147.84883 | 1551 ft | 102 kts | 50° |
| 2026-04-22 06:26 | -42.72823 | 147.85731 | 1731 ft | 111 kts | 56° |
| 2026-04-22 06:26 | -42.72494 | 147.86757 | 1821 ft | 124 kts | 65° |
| 2026-04-22 06:26 | -42.72045 | 147.87840 | 1721 ft | 139 kts | 57° |
| 2026-04-22 06:27 | -42.71535 | 147.88997 | 1470 ft | 144 kts | 59° |
| 2026-04-22 06:27 | -42.71102 | 147.90131 | 1405 ft | 123 kts | 64° |
| 2026-04-22 06:27 | -42.70848 | 147.90884 | 1622 ft | 35 kts | 287° |
| 2026-04-22 06:27 | -42.70784 | 147.91040 | 1426 ft | 11 kts | 256° |
| 2026-04-22 06:28 | -42.71016 | 147.90850 | 1475 ft | 72 kts | 240° |
| 2026-04-22 06:28 | -42.71374 | 147.90139 | 1438 ft | 102 kts | 234° |
| 2026-04-22 06:28 | -42.71816 | 147.89296 | 1352 ft | 118 kts | 237° |
| 2026-04-22 06:28 | -42.72209 | 147.88410 | 1522 ft | 108 kts | 241° |
| 2026-04-22 06:29 | -42.72553 | 147.87534 | 1696 ft | 101 kts | 242° |
| 2026-04-22 06:29 | -42.72909 | 147.86708 | 1825 ft | 100 kts | 240° |
| 2026-04-22 06:29 | -42.73299 | 147.85822 | 1684 ft | 119 kts | 239° |
| 2026-04-22 06:29 | -42.73747 | 147.84831 | 1411 ft | 128 kts | 239° |
| 2026-04-22 06:30 | -42.74197 | 147.83853 | 1005 ft | 89 kts | 242° |
| 2026-04-22 06:30 | -42.74459 | 147.83301 | 1184 ft | 45 kts | 234° |
| 2026-04-22 06:30 | -42.74648 | 147.83147 | 1243 ft | 23 kts | 163° |
| 2026-04-22 06:30 | -42.74711 | 147.83265 | 1094 ft | 19 kts | 54° |
| 2026-04-22 06:31 | -42.74658 | 147.83348 | 1128 ft | 7 kts | 283° |
| 2026-04-22 06:31 | -42.74644 | 147.83320 | 1068 ft | 1 kts | 278° |
| 2026-04-22 06:32 | -42.74643 | 147.83320 | 1082 ft | 4 kts | 266° |
| 2026-04-22 06:32 | -42.74860 | 147.83342 | 1116 ft | 56 kts | 176° |
| 2026-04-22 06:32 | -42.75362 | 147.83537 | 1034 ft | 90 kts | 167° |
| 2026-04-22 06:33 | -42.75996 | 147.83831 | 987 ft | 98 kts | 167° |
| 2026-04-22 06:33 | -42.76620 | 147.84084 | 1034 ft | 98 kts | 172° |
| 2026-04-22 06:33 | -42.77309 | 147.84275 | 1004 ft | 102 kts | 175° |
| 2026-04-22 06:33 | -42.78011 | 147.84441 | 989 ft | 104 kts | 175° |
| 2026-04-22 06:34 | -42.78723 | 147.84603 | 992 ft | 105 kts | 175° |
| 2026-04-22 06:34 | -42.79441 | 147.84555 | 988 ft | 103 kts | 197° |
| 2026-04-22 06:34 | -42.80127 | 147.84336 | 1036 ft | 93 kts | 203° |
| 2026-04-22 06:34 | -42.80626 | 147.84000 | 1107 ft | 69 kts | 222° |
| 2026-04-22 06:35 | -42.80999 | 147.83662 | 1057 ft | 66 kts | 227° |
| 2026-04-22 06:35 | -42.81334 | 147.83203 | 925 ft | 69 kts | 238° |
| 2026-04-22 06:35 | -42.81613 | 147.82673 | 819 ft | 68 kts | 244° |
| 2026-04-22 06:35 | -42.81867 | 147.82205 | 780 ft | 57 kts | 240° |
| 2026-04-22 06:36 | -42.82058 | 147.81837 | 593 ft | 32 kts | 273° |
| 2026-04-22 06:36 | -42.82029 | 147.81480 | 599 ft | 54 kts | 282° |
| 2026-04-22 06:36 | -42.81977 | 147.80903 | 604 ft | 64 kts | 278° |
| 2026-04-22 06:36 | -42.81972 | 147.80540 | 562 ft | 49 kts | 273° |
| 2026-04-22 06:37 | -42.82120 | 147.80506 | 354 ft | 20 kts | 351° |
| 2026-04-22 06:37 | -42.82041 | 147.80466 | 305 ft | 7 kts | 316° |
| 2026-04-22 06:37 | -42.82035 | 147.80459 | 294 ft | 0 kts | 311° |
| 2026-04-22 06:37 | -42.82035 | 147.80458 | 291 ft | 0 kts | 322° |
| 2026-04-22 07:00 | -42.82030 | 147.80454 | 376 ft | 11 kts | 349° |
| 2026-04-22 07:00 | -42.81778 | 147.80547 | 670 ft | 67 kts | 14° |
| 2026-04-22 07:01 | -42.81256 | 147.80814 | 949 ft | 78 kts | 18° |
| 2026-04-22 07:01 | -42.80800 | 147.81094 | 1434 ft | 65 kts | 22° |
| 2026-04-22 07:01 | -42.80365 | 147.81386 | 1741 ft | 87 kts | 22° |
| 2026-04-22 07:01 | -42.79708 | 147.81818 | 1670 ft | 122 kts | 22° |
| 2026-04-22 07:02 | -42.78881 | 147.82360 | 1592 ft | 137 kts | 23° |
| 2026-04-22 07:02 | -42.78000 | 147.82937 | 1567 ft | 142 kts | 23° |
| 2026-04-22 07:02 | -42.77114 | 147.83516 | 1552 ft | 139 kts | 22° |
| 2026-04-22 07:02 | -42.76253 | 147.84077 | 1558 ft | 136 kts | 20° |
| 2026-04-22 07:03 | -42.75409 | 147.84234 | 1730 ft | 118 kts | 348° |
| 2026-04-22 07:03 | -42.74748 | 147.83764 | 1615 ft | 97 kts | 300° |
| 2026-04-22 07:03 | -42.74948 | 147.83207 | 1430 ft | 77 kts | 172° |
| 2026-04-22 07:03 | -42.74893 | 147.83583 | 1152 ft | 50 kts | 349° |
| 2026-04-22 07:04 | -42.74688 | 147.83353 | 1086 ft | 16 kts | 286° |
| 2026-04-22 07:04 | -42.74667 | 147.83325 | 1077 ft | 4 kts | 295° |
| 2026-04-22 07:04 | -42.74664 | 147.83316 | 1069 ft | 0 kts | 308° |
| 2026-04-22 07:06 | -42.74621 | 147.83296 | 1123 ft | 8 kts | 359° |
| 2026-04-22 07:06 | -42.74539 | 147.83343 | 1320 ft | 31 kts | 50° |
| 2026-04-22 07:07 | -42.74287 | 147.83832 | 1309 ft | 91 kts | 54° |
| 2026-04-22 07:07 | -42.73966 | 147.84489 | 1616 ft | 75 kts | 58° |
| 2026-04-22 07:07 | -42.73750 | 147.85067 | 1939 ft | 76 kts | 62° |
| 2026-04-22 07:07 | -42.73440 | 147.85872 | 1867 ft | 110 kts | 59° |
| 2026-04-22 07:08 | -42.73057 | 147.86838 | 1833 ft | 117 kts | 60° |
| 2026-04-22 07:08 | -42.72663 | 147.87797 | 1838 ft | 119 kts | 59° |
| 2026-04-22 07:08 | -42.72255 | 147.88787 | 1835 ft | 121 kts | 59° |
| 2026-04-22 07:08 | -42.71853 | 147.89767 | 1835 ft | 117 kts | 60° |
| 2026-04-22 07:09 | -42.71440 | 147.90725 | 1883 ft | 113 kts | 53° |
| 2026-04-22 07:09 | -42.71155 | 147.91523 | 2144 ft | 58 kts | 157° |
| 2026-04-22 07:09 | -42.71239 | 147.91529 | 2164 ft | 23 kts | 243° |
| 2026-04-22 07:09 | -42.71389 | 147.91221 | 2025 ft | 52 kts | 238° |
| 2026-04-22 07:10 | -42.71605 | 147.90768 | 1976 ft | 59 kts | 237° |
| 2026-04-22 07:10 | -42.71859 | 147.90272 | 1908 ft | 68 kts | 236° |
| 2026-04-22 07:10 | -42.72128 | 147.89757 | 1921 ft | 57 kts | 236° |
| 2026-04-22 07:10 | -42.72326 | 147.89413 | 1969 ft | 44 kts | 235° |
| 2026-04-22 07:11 | -42.72509 | 147.89078 | 1936 ft | 46 kts | 238° |
| 2026-04-22 07:11 | -42.72672 | 147.88804 | 1993 ft | 33 kts | 217° |
| 2026-04-22 07:11 | -42.72886 | 147.88388 | 1771 ft | 79 kts | 240° |
| 2026-04-22 07:11 | -42.73199 | 147.87712 | 1536 ft | 89 kts | 236° |
| 2026-04-22 07:12 | -42.73575 | 147.87060 | 1435 ft | 87 kts | 230° |
| 2026-04-22 07:12 | -42.73964 | 147.86480 | 1413 ft | 77 kts | 228° |
| 2026-04-22 07:12 | -42.74296 | 147.85995 | 1423 ft | 64 kts | 233° |
| 2026-04-22 07:12 | -42.74488 | 147.85519 | 1488 ft | 52 kts | 246° |
| 2026-04-22 07:13 | -42.74607 | 147.85079 | 1503 ft | 49 kts | 246° |
| 2026-04-22 07:13 | -42.74783 | 147.84535 | 1339 ft | 77 kts | 248° |
| 2026-04-22 07:13 | -42.74812 | 147.83880 | 1158 ft | 67 kts | 352° |
| 2026-04-22 07:13 | -42.74404 | 147.84314 | 1073 ft | 83 kts | 56° |
| 2026-04-22 07:14 | -42.74117 | 147.84813 | 1284 ft | 50 kts | 49° |
| 2026-04-22 07:14 | -42.73906 | 147.85089 | 1383 ft | 37 kts | 65° |
| 2026-04-22 07:14 | -42.73687 | 147.85523 | 1778 ft | 82 kts | 50° |
| 2026-04-22 07:14 | -42.73392 | 147.86416 | 1578 ft | 120 kts | 78° |
| 2026-04-22 07:15 | -42.73124 | 147.87491 | 1516 ft | 117 kts | 56° |
| 2026-04-22 07:15 | -42.72579 | 147.88331 | 1488 ft | 118 kts | 47° |
| 2026-04-22 07:15 | -42.72161 | 147.89290 | 1464 ft | 124 kts | 55° |
| 2026-04-22 07:15 | -42.71680 | 147.90409 | 1100 ft | 141 kts | 61° |
| 2026-04-22 07:16 | -42.71206 | 147.91410 | 1282 ft | 108 kts | 31° |
| 2026-04-22 07:16 | -42.70874 | 147.91102 | 1398 ft | 87 kts | 242° |
| 2026-04-22 07:16 | -42.71488 | 147.90528 | 1119 ft | 117 kts | 223° |
| 2026-04-22 07:16 | -42.71967 | 147.89695 | 1150 ft | 102 kts | 235° |
| 2026-04-22 07:17 | -42.72353 | 147.89177 | 1581 ft | 56 kts | 225° |
| 2026-04-22 07:17 | -42.72671 | 147.88950 | 1865 ft | 54 kts | 216° |
| 2026-04-22 07:17 | -42.73063 | 147.88569 | 1833 ft | 90 kts | 237° |
| 2026-04-22 07:17 | -42.73442 | 147.87658 | 1403 ft | 124 kts | 245° |
| 2026-04-22 07:18 | -42.73866 | 147.86629 | 1236 ft | 122 kts | 241° |
| 2026-04-22 07:18 | -42.74279 | 147.85731 | 1467 ft | 93 kts | 250° |
| 2026-04-22 07:18 | -42.74115 | 147.84940 | 1457 ft | 97 kts | 308° |
| 2026-04-22 07:18 | -42.74255 | 147.84177 | 927 ft | 110 kts | 192° |
| 2026-04-22 07:19 | -42.74864 | 147.84492 | 513 ft | 94 kts | 135° |
| 2026-04-22 07:19 | -42.75385 | 147.84840 | 415 ft | 78 kts | 146° |
| 2026-04-22 07:19 | -42.75554 | 147.85329 | 519 ft | 47 kts | 18° |
| 2026-04-22 07:19 | -42.75161 | 147.85419 | 555 ft | 72 kts | 343° |
| 2026-04-22 07:20 | -42.74703 | 147.85415 | 953 ft | 53 kts | 344° |
| 2026-04-22 07:20 | -42.74354 | 147.85246 | 1222 ft | 56 kts | 315° |
| 2026-04-22 07:20 | -42.74139 | 147.85055 | 1383 ft | 58 kts | 311° |
| 2026-04-22 07:20 | -42.73900 | 147.84503 | 920 ft | 81 kts | 260° |
| 2026-04-22 07:21 | -42.74191 | 147.84215 | 669 ft | 42 kts | 177° |
| 2026-04-22 07:21 | -42.74420 | 147.83953 | 663 ft | 72 kts | 263° |
| 2026-04-22 07:21 | -42.74199 | 147.83475 | 1030 ft | 60 kts | 273° |
| 2026-04-22 07:21 | -42.74422 | 147.83155 | 1357 ft | 87 kts | 142° |
| 2026-04-22 07:22 | -42.73637 | 147.83748 | 1407 ft | 130 kts | 52° |
| 2026-04-22 07:22 | -42.73519 | 147.84578 | 1370 ft | 151 kts | 112° |
| 2026-04-22 07:22 | -42.73878 | 147.85052 | 2270 ft | 66 kts | 223° |
| 2026-04-22 07:22 | -42.74317 | 147.84751 | 2127 ft | 82 kts | 219° |
| 2026-04-22 07:23 | -42.74805 | 147.84525 | 1821 ft | 67 kts | 213° |
| 2026-04-22 07:23 | -42.75216 | 147.84492 | 1422 ft | 54 kts | 211° |
| 2026-04-22 07:23 | -42.75556 | 147.84599 | 993 ft | 46 kts | 219° |
| 2026-04-22 07:23 | -42.75463 | 147.84164 | 490 ft | 84 kts | 324° |
| 2026-04-22 07:24 | -42.74950 | 147.83779 | 778 ft | 76 kts | 323° |
| 2026-04-22 07:24 | -42.74655 | 147.83335 | 1181 ft | 63 kts | 334° |
| 2026-04-22 07:24 | -42.74283 | 147.83863 | 1226 ft | 99 kts | 83° |
| 2026-04-22 07:24 | -42.74004 | 147.84717 | 1540 ft | 95 kts | 79° |
| 2026-04-22 07:25 | -42.74243 | 147.85143 | 1928 ft | 74 kts | 228° |
| 2026-04-22 07:25 | -42.74618 | 147.84268 | 1347 ft | 132 kts | 251° |
| 2026-04-22 07:25 | -42.74851 | 147.83278 | 1397 ft | 99 kts | 309° |
| 2026-04-22 07:25 | -42.74730 | 147.83129 | 1383 ft | 98 kts | 343° |
| 2026-04-22 07:40 | -42.74690 | 147.83114 | 1382 ft | 67 kts | 51° |
| 2026-04-22 07:40 | -42.74606 | 147.83055 | 1285 ft | 18 kts | 309° |
| 2026-04-22 07:40 | -42.74584 | 147.83332 | 1143 ft | 54 kts | 181° |
| 2026-04-22 07:40 | -42.74657 | 147.83315 | 1075 ft | 7 kts | 323° |
| 2026-04-22 07:41 | -42.74652 | 147.83305 | 1067 ft | 0 kts | 339° |
| 2026-04-22 07:41 | -42.74522 | 147.83351 | 1057 ft | 63 kts | 28° |
| 2026-04-22 07:41 | -42.74284 | 147.84022 | 954 ft | 117 kts | 127° |
| 2026-04-22 07:42 | -42.75064 | 147.84712 | 579 ft | 148 kts | 167° |
| 2026-04-22 07:42 | -42.75809 | 147.85638 | 486 ft | 156 kts | 113° |
| 2026-04-22 07:42 | -42.75432 | 147.86818 | 556 ft | 138 kts | 26° |
| 2026-04-22 07:42 | -42.74629 | 147.87594 | 529 ft | 142 kts | 41° |
| 2026-04-22 07:43 | -42.73971 | 147.88537 | 692 ft | 130 kts | 41° |
| 2026-04-22 07:43 | -42.73186 | 147.88483 | 794 ft | 122 kts | 338° |
| 2026-04-22 07:43 | -42.72523 | 147.88402 | 1348 ft | 83 kts | 49° |
| 2026-04-22 07:43 | -42.72168 | 147.89128 | 1372 ft | 119 kts | 42° |
| 2026-04-22 07:44 | -42.71993 | 147.90477 | 611 ft | 164 kts | 108° |
| 2026-04-22 07:44 | -42.72749 | 147.91301 | 677 ft | 141 kts | 190° |
| 2026-04-22 07:44 | -42.73259 | 147.90454 | 784 ft | 120 kts | 289° |
| 2026-04-22 07:44 | -42.72807 | 147.89763 | 1357 ft | 82 kts | 330° |
| 2026-04-22 07:45 | -42.72443 | 147.89260 | 1681 ft | 83 kts | 309° |
| 2026-04-22 07:45 | -42.72517 | 147.89063 | 1765 ft | 87 kts | 123° |
| 2026-04-22 07:45 | -42.73073 | 147.89726 | 1137 ft | 134 kts | 142° |
| 2026-04-22 07:45 | -42.73632 | 147.90206 | 1150 ft | 31 kts | 311° |
| 2026-04-22 07:46 | -42.73387 | 147.89902 | 930 ft | 78 kts | 305° |
| 2026-04-22 07:46 | -42.73075 | 147.89309 | 1542 ft | 79 kts | 313° |
| 2026-04-22 07:46 | -42.72598 | 147.88722 | 1861 ft | 110 kts | 298° |
| 2026-04-22 07:46 | -42.73189 | 147.88937 | 1211 ft | 160 kts | 130° |
| 2026-04-22 07:47 | -42.73894 | 147.89718 | 1181 ft | 75 kts | 220° |
| 2026-04-22 07:47 | -42.73767 | 147.89122 | 1032 ft | 113 kts | 359° |
| 2026-04-22 07:47 | -42.73134 | 147.89408 | 1471 ft | 82 kts | 39° |
| 2026-04-22 07:47 | -42.72552 | 147.89628 | 1461 ft | 97 kts | 20° |
| 2026-04-22 07:48 | -42.71956 | 147.90025 | 920 ft | 101 kts | 96° |
| 2026-04-22 07:48 | -42.72245 | 147.90137 | 1107 ft | 62 kts | 245° |
| 2026-04-22 07:48 | -42.72658 | 147.90254 | 1178 ft | 111 kts | 57° |
| 2026-04-22 07:48 | -42.71913 | 147.90759 | 717 ft | 138 kts | 69° |
| 2026-04-22 07:49 | -42.72152 | 147.91929 | 942 ft | 147 kts | 124° |
| 2026-04-22 07:49 | -42.72574 | 147.93228 | 1005 ft | 153 kts | 104° |
| 2026-04-22 07:49 | -42.71865 | 147.93876 | 660 ft | 144 kts | 328° |
| 2026-04-22 07:49 | -42.71939 | 147.92802 | 533 ft | 135 kts | 222° |
| 2026-04-22 07:50 | -42.72835 | 147.92766 | 500 ft | 131 kts | 165° |
| 2026-04-22 07:50 | -42.73512 | 147.93146 | 1131 ft | 86 kts | 174° |
| 2026-04-22 07:50 | -42.73846 | 147.92530 | 1019 ft | 110 kts | 278° |
| 2026-04-22 07:50 | -42.73882 | 147.91347 | 602 ft | 142 kts | 265° |
| 2026-04-22 07:51 | -42.74086 | 147.90274 | 830 ft | 69 kts | 309° |
| 2026-04-22 07:51 | -42.73932 | 147.90262 | 406 ft | 48 kts | 62° |
| 2026-04-22 07:51 | -42.73747 | 147.90690 | 623 ft | 64 kts | 81° |
| 2026-04-22 07:51 | -42.74243 | 147.90590 | 391 ft | 98 kts | 234° |
| 2026-04-22 07:52 | -42.74399 | 147.90520 | 281 ft | 67 kts | 53° |
| 2026-04-22 07:52 | -42.74021 | 147.90820 | 494 ft | 63 kts | 18° |
| 2026-04-22 07:52 | -42.73831 | 147.90429 | 632 ft | 75 kts | 251° |
| 2026-04-22 07:52 | -42.74277 | 147.89798 | 544 ft | 101 kts | 225° |
| 2026-04-22 07:53 | -42.74804 | 147.89124 | 584 ft | 105 kts | 226° |
| 2026-04-22 07:53 | -42.75168 | 147.88307 | 719 ft | 99 kts | 261° |
| 2026-04-22 07:53 | -42.75230 | 147.87424 | 986 ft | 91 kts | 265° |
| 2026-04-22 07:53 | -42.75298 | 147.86593 | 1219 ft | 89 kts | 264° |
| 2026-04-22 07:54 | -42.75375 | 147.85682 | 1185 ft | 104 kts | 264° |
| 2026-04-22 07:54 | -42.75456 | 147.84664 | 1172 ft | 110 kts | 266° |
| 2026-04-22 07:54 | -42.75537 | 147.83622 | 1165 ft | 109 kts | 264° |
| 2026-04-22 07:54 | -42.75609 | 147.82601 | 1177 ft | 110 kts | 264° |
| 2026-04-22 07:55 | -42.75680 | 147.81543 | 1217 ft | 108 kts | 266° |
| 2026-04-22 07:55 | -42.75749 | 147.80576 | 1289 ft | 103 kts | 265° |
| 2026-04-22 07:55 | -42.75820 | 147.79553 | 1261 ft | 112 kts | 265° |
| 2026-04-22 07:55 | -42.75890 | 147.78482 | 1247 ft | 113 kts | 265° |
| 2026-04-22 07:56 | -42.75950 | 147.77479 | 1368 ft | 96 kts | 266° |
| 2026-04-22 07:56 | -42.76003 | 147.76650 | 1614 ft | 77 kts | 263° |
| 2026-04-22 07:56 | -42.76045 | 147.76034 | 1698 ft | 55 kts | 266° |
| 2026-04-22 07:56 | -42.76216 | 147.75974 | 1682 ft | 32 kts | 22° |
| 2026-04-22 07:57 | -42.75955 | 147.75881 | 1498 ft | 50 kts | 342° |
| 2026-04-22 07:57 | -42.75954 | 147.75884 | 1452 ft | 39 kts | 201° |
| 2026-04-22 07:57 | -42.76272 | 147.76099 | 1362 ft | 89 kts | 59° |
| 2026-04-22 07:57 | -42.75917 | 147.75973 | 1462 ft | 72 kts | 279° |
| 2026-04-22 07:58 | -42.75441 | 147.75644 | 1404 ft | 103 kts | 10° |
| 2026-04-22 07:58 | -42.75141 | 147.76530 | 1293 ft | 119 kts | 92° |
| 2026-04-22 07:58 | -42.75191 | 147.77630 | 1323 ft | 118 kts | 87° |
| 2026-04-22 07:58 | -42.75273 | 147.78744 | 1305 ft | 121 kts | 92° |
| 2026-04-22 07:59 | -42.75384 | 147.79854 | 1300 ft | 119 kts | 99° |
| 2026-04-22 07:59 | -42.75487 | 147.81010 | 1293 ft | 126 kts | 96° |
| 2026-04-22 07:59 | -42.75543 | 147.82196 | 1293 ft | 125 kts | 92° |
| 2026-04-22 07:59 | -42.75580 | 147.83377 | 1285 ft | 126 kts | 92° |
| 2026-04-22 08:00 | -42.75609 | 147.84562 | 1289 ft | 125 kts | 92° |
| 2026-04-22 08:00 | -42.75641 | 147.85753 | 1293 ft | 127 kts | 92° |
| 2026-04-22 08:00 | -42.75674 | 147.86958 | 1292 ft | 128 kts | 92° |
| 2026-04-22 08:00 | -42.75705 | 147.88172 | 1292 ft | 128 kts | 92° |
| 2026-04-22 08:01 | -42.75499 | 147.89230 | 1405 ft | 110 kts | 27° |
| 2026-04-22 08:01 | -42.74771 | 147.89138 | 1318 ft | 117 kts | 327° |
| 2026-04-22 08:01 | -42.74202 | 147.88352 | 1314 ft | 115 kts | 294° |
| 2026-04-22 08:01 | -42.74585 | 147.87532 | 1192 ft | 123 kts | 210° |
| 2026-04-22 08:02 | -42.75394 | 147.86995 | 842 ft | 127 kts | 217° |
| 2026-04-22 08:02 | -42.75964 | 147.86388 | 565 ft | 81 kts | 229° |
| 2026-04-22 08:02 | -42.76198 | 147.85982 | 238 ft | 21 kts | 240° |
| 2026-04-22 08:02 | -42.76214 | 147.85948 | 164 ft | 2 kts | 328° |
| 2026-04-22 08:03 | -42.76212 | 147.85946 | 161 ft | 0 kts | 333° |
| 2026-04-22 08:15 | -42.76201 | 147.85932 | 201 ft | 13 kts | 328° |
| 2026-04-22 08:15 | -42.76037 | 147.85924 | 413 ft | 32 kts | 52° |
| 2026-04-22 08:16 | -42.75987 | 147.86332 | 562 ft | 67 kts | 105° |
| 2026-04-22 08:16 | -42.76090 | 147.87033 | 701 ft | 81 kts | 78° |
| 2026-04-22 08:16 | -42.75667 | 147.87005 | 553 ft | 88 kts | 288° |
| 2026-04-22 08:16 | -42.75411 | 147.86195 | 494 ft | 98 kts | 290° |
| 2026-04-22 08:17 | -42.75002 | 147.85641 | 753 ft | 68 kts | 310° |
| 2026-04-22 08:17 | -42.74677 | 147.85397 | 1108 ft | 41 kts | 311° |
| 2026-04-22 08:17 | -42.74449 | 147.85217 | 1344 ft | 36 kts | 291° |
| 2026-04-22 08:17 | -42.74905 | 147.85073 | 959 ft | 111 kts | 156° |
| 2026-04-22 08:18 | -42.74711 | 147.85643 | 1068 ft | 74 kts | 355° |
| 2026-04-22 08:18 | -42.74277 | 147.85538 | 1326 ft | 58 kts | 329° |
| 2026-04-22 08:18 | -42.73982 | 147.85685 | 1539 ft | 62 kts | 69° |
| 2026-04-22 08:18 | -42.73728 | 147.86395 | 1406 ft | 95 kts | 59° |
| 2026-04-22 08:19 | -42.73289 | 147.87101 | 1406 ft | 101 kts | 46° |
| 2026-04-22 08:19 | -42.72746 | 147.87757 | 1409 ft | 106 kts | 43° |
| 2026-04-22 08:19 | -42.73064 | 147.88514 | 866 ft | 134 kts | 179° |
| 2026-04-22 08:19 | -42.74046 | 147.88696 | 375 ft | 146 kts | 159° |
| 2026-04-22 08:20 | -42.74924 | 147.89120 | 278 ft | 112 kts | 209° |
| 2026-04-22 08:20 | -42.74897 | 147.88471 | 426 ft | 93 kts | 337° |
| 2026-04-22 08:20 | -42.74339 | 147.88019 | 516 ft | 83 kts | 340° |
| 2026-04-22 08:20 | -42.74648 | 147.87784 | 507 ft | 82 kts | 182° |
| 2026-04-22 08:21 | -42.74536 | 147.87641 | 542 ft | 86 kts | 46° |
| 2026-04-22 08:21 | -42.74116 | 147.88308 | 566 ft | 94 kts | 50° |
| 2026-04-22 08:21 | -42.73573 | 147.88666 | 651 ft | 84 kts | 357° |
| 2026-04-22 08:21 | -42.73129 | 147.88369 | 927 ft | 57 kts | 315° |
| 2026-04-22 08:22 | -42.72946 | 147.88130 | 1112 ft | 23 kts | 333° |
| 2026-04-22 08:22 | -42.72832 | 147.88029 | 1208 ft | 27 kts | 313° |
| 2026-04-22 08:22 | -42.72581 | 147.87646 | 1252 ft | 74 kts | 304° |
| 2026-04-22 08:22 | -42.72255 | 147.87076 | 1527 ft | 73 kts | 303° |
| 2026-04-22 08:23 | -42.72042 | 147.86437 | 1720 ft | 80 kts | 277° |
| 2026-04-22 08:23 | -42.72057 | 147.85641 | 1943 ft | 88 kts | 262° |
| 2026-04-22 08:23 | -42.72184 | 147.84774 | 2032 ft | 102 kts | 253° |
| 2026-04-22 08:23 | -42.72479 | 147.83840 | 2001 ft | 111 kts | 242° |
| 2026-04-22 08:24 | -42.72939 | 147.82964 | 2001 ft | 116 kts | 231° |
| 2026-04-22 08:24 | -42.73538 | 147.82209 | 2003 ft | 120 kts | 220° |
| 2026-04-22 08:24 | -42.74247 | 147.81614 | 2000 ft | 123 kts | 210° |
| 2026-04-22 08:24 | -42.75052 | 147.81204 | 2004 ft | 125 kts | 198° |
| 2026-04-22 08:25 | -42.75916 | 147.80965 | 2000 ft | 128 kts | 192° |
| 2026-04-22 08:25 | -42.76806 | 147.80842 | 2005 ft | 128 kts | 186° |
| 2026-04-22 08:25 | -42.77698 | 147.80794 | 2005 ft | 129 kts | 186° |
| 2026-04-22 08:25 | -42.78595 | 147.80753 | 2008 ft | 129 kts | 185° |
| 2026-04-22 08:26 | -42.79410 | 147.80495 | 2002 ft | 125 kts | 216° |
| 2026-04-22 08:26 | -42.79931 | 147.79603 | 2002 ft | 121 kts | 248° |
| 2026-04-22 08:26 | -42.80111 | 147.78482 | 1999 ft | 121 kts | 260° |
| 2026-04-22 08:26 | -42.80237 | 147.77356 | 2002 ft | 121 kts | 262° |
| 2026-04-22 08:27 | -42.80338 | 147.76224 | 1999 ft | 120 kts | 264° |
| 2026-04-22 08:27 | -42.80426 | 147.75102 | 2000 ft | 119 kts | 263° |
| 2026-04-22 08:27 | -42.80509 | 147.74007 | 2001 ft | 113 kts | 264° |
| 2026-04-22 08:27 | -42.80591 | 147.72920 | 2005 ft | 121 kts | 264° |
| 2026-04-22 08:28 | -42.80680 | 147.71790 | 1998 ft | 119 kts | 264° |
| 2026-04-22 08:28 | -42.80772 | 147.70671 | 2000 ft | 119 kts | 264° |
| 2026-04-22 08:28 | -42.80864 | 147.69556 | 2000 ft | 119 kts | 263° |
| 2026-04-22 08:28 | -42.80957 | 147.68431 | 2000 ft | 119 kts | 263° |
| 2026-04-22 08:29 | -42.81051 | 147.67306 | 2001 ft | 120 kts | 263° |
| 2026-04-22 08:29 | -42.81144 | 147.66193 | 1999 ft | 119 kts | 264° |
| 2026-04-22 08:29 | -42.81237 | 147.65068 | 2001 ft | 120 kts | 264° |
| 2026-04-22 08:29 | -42.81332 | 147.63941 | 2000 ft | 120 kts | 264° |
| 2026-04-22 08:30 | -42.81426 | 147.62818 | 2000 ft | 119 kts | 264° |
| 2026-04-22 08:30 | -42.81520 | 147.61694 | 2001 ft | 119 kts | 264° |
| 2026-04-22 08:30 | -42.81614 | 147.60570 | 1998 ft | 118 kts | 264° |
| 2026-04-22 08:30 | -42.81709 | 147.59432 | 2005 ft | 123 kts | 263° |
| 2026-04-22 08:31 | -42.81808 | 147.58242 | 2001 ft | 128 kts | 264° |
| 2026-04-22 08:31 | -42.81913 | 147.57031 | 2002 ft | 129 kts | 262° |
| 2026-04-22 08:31 | -42.82450 | 147.54591 | 1707 ft | 138 kts | 248° |
| 2026-04-22 08:32 | -42.82861 | 147.53403 | 1529 ft | 139 kts | 244° |
| 2026-04-22 08:32 | -42.83228 | 147.52168 | 1231 ft | 144 kts | 257° |
| 2026-04-22 08:32 | -42.83333 | 147.50820 | 899 ft | 143 kts | 271° |
| 2026-04-22 08:32 | -42.83189 | 147.49520 | 532 ft | 133 kts | 284° |
| 2026-04-22 08:33 | -42.82968 | 147.48375 | 170 ft | 115 kts | 285° |
| 2026-04-22 08:33 | -42.82824 | 147.47619 | 122 ft | 30 kts | 236° |
| 2026-04-22 08:33 | -42.82867 | 147.47591 | 87 ft | 12 kts | 110° |
| 2026-04-22 08:33 | -42.82916 | 147.47667 | 45 ft | 5 kts | 196° |
| 2026-04-22 08:34 | -42.82919 | 147.47661 | 39 ft | 0 kts | 202° |
| 2026-04-22 08:34 | -42.82921 | 147.47661 | 36 ft | 0 kts | 202° |
| 2026-04-22 08:54 | -42.82902 | 147.47712 | 140 ft | 23 kts | 107° |
| 2026-04-22 08:54 | -42.82828 | 147.48250 | 194 ft | 78 kts | 77° |
| 2026-04-22 08:54 | -42.82572 | 147.48909 | 397 ft | 81 kts | 56° |
| 2026-04-22 08:55 | -42.82280 | 147.49667 | 467 ft | 99 kts | 69° |
| 2026-04-22 08:55 | -42.81984 | 147.50545 | 564 ft | 106 kts | 58° |
| 2026-04-22 08:55 | -42.81709 | 147.51432 | 775 ft | 98 kts | 71° |
| 2026-04-22 08:55 | -42.81506 | 147.52286 | 1010 ft | 91 kts | 72° |
| 2026-04-22 08:56 | -42.81323 | 147.53082 | 1262 ft | 85 kts | 72° |
| 2026-04-22 08:56 | -42.81147 | 147.53846 | 1480 ft | 85 kts | 71° |
| 2026-04-22 08:56 | -42.80983 | 147.54613 | 1700 ft | 83 kts | 72° |
| 2026-04-22 08:56 | -42.80828 | 147.55349 | 1922 ft | 81 kts | 72° |
| 2026-04-22 08:57 | -42.80669 | 147.56092 | 2143 ft | 80 kts | 72° |
| 2026-04-22 08:57 | -42.80508 | 147.56833 | 2280 ft | 92 kts | 71° |
| 2026-04-22 08:57 | -42.80301 | 147.57765 | 2249 ft | 111 kts | 71° |
| 2026-04-22 08:57 | -42.80066 | 147.58808 | 2242 ft | 118 kts | 71° |
| 2026-04-22 08:58 | -42.79816 | 147.59893 | 2240 ft | 122 kts | 71° |
| 2026-04-22 08:58 | -42.79558 | 147.61006 | 2242 ft | 124 kts | 71° |
| 2026-04-22 08:58 | -42.79295 | 147.62137 | 2240 ft | 126 kts | 71° |
| 2026-04-22 08:58 | -42.79026 | 147.63274 | 2241 ft | 127 kts | 70° |
| 2026-04-22 08:59 | -42.78763 | 147.64407 | 2242 ft | 127 kts | 71° |
| 2026-04-22 08:59 | -42.78492 | 147.65563 | 2241 ft | 128 kts | 71° |
| 2026-04-22 08:59 | -42.78220 | 147.66719 | 2241 ft | 128 kts | 71° |
| 2026-04-22 08:59 | -42.77950 | 147.67872 | 2241 ft | 127 kts | 71° |
| 2026-04-22 09:00 | -42.77678 | 147.69024 | 2243 ft | 128 kts | 71° |
| 2026-04-22 09:00 | -42.77404 | 147.70188 | 2237 ft | 129 kts | 71° |
| 2026-04-22 09:00 | -42.77131 | 147.71332 | 2243 ft | 126 kts | 70° |
| 2026-04-22 09:00 | -42.76862 | 147.72471 | 2242 ft | 126 kts | 71° |
| 2026-04-22 09:01 | -42.76593 | 147.73617 | 2238 ft | 126 kts | 71° |
| 2026-04-22 09:01 | -42.76329 | 147.74733 | 2244 ft | 126 kts | 71° |
| 2026-04-22 09:01 | -42.76062 | 147.75881 | 2242 ft | 128 kts | 71° |
| 2026-04-22 09:01 | -42.75795 | 147.77020 | 2241 ft | 126 kts | 71° |
| 2026-04-22 09:02 | -42.75529 | 147.78163 | 2242 ft | 126 kts | 71° |
| 2026-04-22 09:02 | -42.75266 | 147.79283 | 2242 ft | 123 kts | 71° |
| 2026-04-22 09:02 | -42.75005 | 147.80408 | 2241 ft | 125 kts | 71° |
| 2026-04-22 09:02 | -42.74742 | 147.81540 | 2244 ft | 126 kts | 70° |
| 2026-04-22 09:03 | -42.74476 | 147.82693 | 2247 ft | 130 kts | 71° |
| 2026-04-22 09:03 | -42.74201 | 147.83881 | 2237 ft | 131 kts | 71° |
| 2026-04-22 09:03 | -42.73922 | 147.85065 | 2245 ft | 133 kts | 70° |
| 2026-04-22 09:03 | -42.73649 | 147.86235 | 2237 ft | 129 kts | 71° |
| 2026-04-22 09:04 | -42.73379 | 147.87389 | 2239 ft | 127 kts | 71° |
| 2026-04-22 09:04 | -42.73107 | 147.88519 | 2246 ft | 126 kts | 70° |
| 2026-04-22 09:04 | -42.72835 | 147.89674 | 2237 ft | 127 kts | 72° |
| 2026-04-22 09:04 | -42.72562 | 147.90805 | 2246 ft | 126 kts | 71° |
| 2026-04-22 09:05 | -42.72292 | 147.91945 | 2243 ft | 127 kts | 71° |
| 2026-04-22 09:05 | -42.71906 | 147.92999 | 2237 ft | 123 kts | 40° |
| 2026-04-22 09:05 | -42.71152 | 147.93406 | 2245 ft | 116 kts | 2° |
| 2026-04-22 09:05 | -42.70357 | 147.93374 | 2258 ft | 113 kts | 343° |
| 2026-04-22 09:06 | -42.69726 | 147.92831 | 2253 ft | 106 kts | 304° |
| 2026-04-22 09:06 | -42.69537 | 147.91887 | 2181 ft | 107 kts | 265° |
| 2026-04-22 09:06 | -42.69887 | 147.90987 | 1990 ft | 115 kts | 225° |
| 2026-04-22 09:06 | -42.70650 | 147.90600 | 1962 ft | 123 kts | 186° |
| 2026-04-22 09:07 | -42.71462 | 147.90953 | 1973 ft | 129 kts | 147° |
| 2026-04-22 09:07 | -42.72075 | 147.91928 | 1752 ft | 143 kts | 129° |
| 2026-04-22 09:07 | -42.72792 | 147.92254 | 1716 ft | 91 kts | 251° |
| 2026-04-22 09:07 | -42.72794 | 147.91957 | 1608 ft | 24 kts | 354° |
| 2026-04-22 09:08 | -42.72362 | 147.92128 | 1297 ft | 98 kts | 18° |
| 2026-04-22 09:08 | -42.71633 | 147.92684 | 930 ft | 136 kts | 37° |
| 2026-04-22 09:08 | -42.71565 | 147.93710 | 410 ft | 99 kts | 171° |
| 2026-04-22 09:08 | -42.72006 | 147.93676 | 220 ft | 34 kts | 171° |
| 2026-04-22 09:09 | -42.71931 | 147.93780 | 192 ft | 51 kts | 7° |
| 2026-04-22 09:09 | -42.71673 | 147.93615 | 420 ft | 57 kts | 231° |
| 2026-04-22 09:09 | -42.72111 | 147.93672 | 474 ft | 86 kts | 110° |
| 2026-04-22 09:09 | -42.71849 | 147.93714 | 420 ft | 92 kts | 255° |
| 2026-04-22 09:10 | -42.72207 | 147.93736 | 454 ft | 66 kts | 11° |
| 2026-04-22 09:10 | -42.71711 | 147.93456 | 182 ft | 78 kts | 84° |
| 2026-04-22 09:10 | -42.71886 | 147.93671 | 156 ft | 30 kts | 230° |
| 2026-04-22 09:10 | -42.71996 | 147.93537 | 90 ft | 9 kts | 297° |
| 2026-04-22 09:11 | -42.71993 | 147.93525 | 65 ft | 0 kts | 336° |
| 2026-04-22 09:14 | -42.71994 | 147.93523 | 73 ft | 2 kts | 330° |
| 2026-04-22 09:14 | -42.71836 | 147.93427 | 172 ft | 60 kts | 331° |
| 2026-04-22 09:14 | -42.71614 | 147.93027 | 491 ft | 55 kts | 234° |
| 2026-04-22 09:15 | -42.72037 | 147.93171 | 619 ft | 103 kts | 115° |
| 2026-04-22 09:15 | -42.72161 | 147.94256 | 649 ft | 98 kts | 151° |
| 2026-04-22 09:15 | -42.72323 | 147.93830 | 898 ft | 101 kts | 309° |
| 2026-04-22 09:15 | -42.71480 | 147.93362 | 355 ft | 153 kts | 347° |
| 2026-04-22 09:16 | -42.70444 | 147.93197 | 418 ft | 137 kts | 357° |
| 2026-04-22 09:16 | -42.69858 | 147.93742 | 843 ft | 111 kts | 110° |
| 2026-04-22 09:16 | -42.70503 | 147.93985 | 712 ft | 125 kts | 219° |
| 2026-04-22 09:16 | -42.71158 | 147.93163 | 703 ft | 126 kts | 235° |
| 2026-04-22 09:17 | -42.71779 | 147.92341 | 803 ft | 124 kts | 232° |
| 2026-04-22 09:17 | -42.72269 | 147.92693 | 716 ft | 126 kts | 77° |
| 2026-04-22 09:17 | -42.71685 | 147.93621 | 372 ft | 146 kts | 14° |
| 2026-04-22 09:17 | -42.71287 | 147.93361 | 365 ft | 76 kts | 188° |
| 2026-04-22 09:18 | -42.71691 | 147.93514 | 234 ft | 51 kts | 112° |
| 2026-04-22 09:18 | -42.71766 | 147.93778 | 88 ft | 3 kts | 313° |
| 2026-04-22 09:18 | -42.71760 | 147.93723 | 127 ft | 28 kts | 253° |
| 2026-04-22 09:18 | -42.72129 | 147.93560 | 345 ft | 78 kts | 191° |
| 2026-04-22 09:19 | -42.72705 | 147.93511 | 668 ft | 86 kts | 187° |
| 2026-04-22 09:19 | -42.73316 | 147.93551 | 996 ft | 95 kts | 160° |
| 2026-04-22 09:19 | -42.73989 | 147.93915 | 997 ft | 112 kts | 165° |
| 2026-04-22 09:19 | -42.74749 | 147.94288 | 1066 ft | 123 kts | 162° |
| 2026-04-22 09:20 | -42.75575 | 147.94769 | 1047 ft | 133 kts | 160° |
| 2026-04-22 09:20 | -42.76441 | 147.95265 | 1044 ft | 137 kts | 161° |
| 2026-04-22 09:20 | -42.77322 | 147.95746 | 1043 ft | 138 kts | 162° |
| 2026-04-22 09:20 | -42.78226 | 147.96220 | 1043 ft | 139 kts | 163° |
| 2026-04-22 09:21 | -42.79137 | 147.96679 | 1043 ft | 139 kts | 163° |
| 2026-04-22 09:21 | -42.80052 | 147.97126 | 1044 ft | 139 kts | 164° |
| 2026-04-22 09:21 | -42.80972 | 147.97565 | 1044 ft | 139 kts | 164° |
| 2026-04-22 09:21 | -42.81890 | 147.97992 | 1044 ft | 139 kts | 165° |
| 2026-04-22 09:22 | -42.82798 | 147.98410 | 1043 ft | 139 kts | 165° |
| 2026-04-22 09:22 | -42.83720 | 147.98830 | 1044 ft | 139 kts | 165° |
| 2026-04-22 09:22 | -42.84640 | 147.99244 | 1043 ft | 139 kts | 166° |
| 2026-04-22 09:22 | -42.85560 | 147.99195 | 1044 ft | 132 kts | 205° |
| 2026-04-22 09:23 | -42.86312 | 147.98512 | 1045 ft | 129 kts | 224° |
| 2026-04-22 09:23 | -42.86941 | 147.97658 | 1044 ft | 129 kts | 230° |
| 2026-04-22 09:23 | -42.87537 | 147.96750 | 1043 ft | 128 kts | 231° |
| 2026-04-22 09:23 | -42.88128 | 147.95840 | 1044 ft | 128 kts | 231° |
| 2026-04-22 09:24 | -42.88772 | 147.95004 | 1110 ft | 127 kts | 210° |
| 2026-04-22 09:24 | -42.89455 | 147.95462 | 1346 ft | 126 kts | 101° |
| 2026-04-22 09:24 | -42.88914 | 147.96045 | 1384 ft | 114 kts | 329° |
| 2026-04-22 09:24 | -42.88764 | 147.95091 | 1399 ft | 118 kts | 250° |
| 2026-04-22 09:25 | -42.89477 | 147.94645 | 1264 ft | 140 kts | 161° |
| 2026-04-22 09:25 | -42.89651 | 147.95717 | 1029 ft | 123 kts | 37° |
| 2026-04-22 09:25 | -42.88994 | 147.95602 | 922 ft | 95 kts | 288° |
| 2026-04-22 09:25 | -42.89370 | 147.95003 | 795 ft | 93 kts | 221° |
| 2026-04-22 09:26 | -42.89314 | 147.94329 | 695 ft | 87 kts | 330° |
| 2026-04-22 09:26 | -42.88745 | 147.94465 | 381 ft | 79 kts | 53° |
| 2026-04-22 09:26 | -42.88830 | 147.94808 | 111 ft | 38 kts | 210° |
| 2026-04-22 09:26 | -42.89012 | 147.94805 | 40 ft | 10 kts | 216° |
| 2026-04-22 09:27 | -42.89185 | 147.95007 | 190 ft | 76 kts | 59° |
| 2026-04-22 09:27 | -42.89114 | 147.94809 | 196 ft | 50 kts | 230° |
| 2026-04-22 09:27 | -42.89043 | 147.94562 | 95 ft | 29 kts | 276° |
| 2026-04-22 09:27 | -42.89138 | 147.94560 | 56 ft | 4 kts | 37° |
| 2026-04-22 09:28 | -42.89071 | 147.94594 | 49 ft | 15 kts | 9° |
| 2026-04-22 09:28 | -42.89004 | 147.94630 | 27 ft | 8 kts | 342° |
| 2026-04-22 09:28 | -42.88947 | 147.94629 | 38 ft | 9 kts | 68° |
| 2026-04-22 09:28 | -42.88926 | 147.94643 | 17 ft | 1 kts | 214° |
| 2026-04-22 09:35 | -42.88505 | 147.93944 | 137 ft | 99 kts | 314° |
| 2026-04-22 09:35 | -42.88181 | 147.93442 | 146 ft | 113 kts | 307° |
| 2026-04-22 09:35 | -42.87535 | 147.92359 | 360 ft | 103 kts | 307° |
| 2026-04-22 09:35 | -42.87137 | 147.91528 | 502 ft | 110 kts | 297° |
| 2026-04-22 09:36 | -42.86945 | 147.90890 | 654 ft | 102 kts | 293° |
| 2026-04-22 09:36 | -42.86718 | 147.89976 | 764 ft | 108 kts | 295° |
| 2026-04-22 09:36 | -42.86465 | 147.88964 | 771 ft | 119 kts | 288° |
| 2026-04-22 09:36 | -42.86315 | 147.87836 | 692 ft | 129 kts | 279° |
| 2026-04-22 09:37 | -42.86194 | 147.86634 | 716 ft | 126 kts | 282° |
| 2026-04-22 09:37 | -42.86072 | 147.85450 | 719 ft | 125 kts | 282° |
| 2026-04-22 09:37 | -42.85968 | 147.84341 | 769 ft | 115 kts | 282° |
| 2026-04-22 09:37 | -42.85860 | 147.83279 | 811 ft | 106 kts | 284° |
| 2026-04-22 09:38 | -42.85754 | 147.82246 | 702 ft | 116 kts | 289° |
| 2026-04-22 09:38 | -42.85270 | 147.81411 | 711 ft | 113 kts | 321° |
| 2026-04-22 09:38 | -42.84751 | 147.80551 | 671 ft | 133 kts | 300° |
| 2026-04-22 09:38 | -42.84121 | 147.79494 | 780 ft | 148 kts | 300° |
| 2026-04-22 09:39 | -42.83913 | 147.78095 | 829 ft | 157 kts | 273° |
| 2026-04-22 09:39 | -42.83934 | 147.76608 | 748 ft | 155 kts | 270° |
| 2026-04-22 09:39 | -42.83998 | 147.75230 | 766 ft | 139 kts | 266° |
| 2026-04-22 09:39 | -42.84026 | 147.73951 | 782 ft | 132 kts | 269° |
| 2026-04-22 09:40 | -42.84010 | 147.72713 | 791 ft | 129 kts | 271° |
| 2026-04-22 09:40 | -42.83966 | 147.71517 | 799 ft | 128 kts | 273° |
| 2026-04-22 09:40 | -42.83905 | 147.70303 | 794 ft | 128 kts | 274° |
| 2026-04-22 09:40 | -42.83833 | 147.69103 | 800 ft | 129 kts | 274° |
| 2026-04-22 09:41 | -42.83754 | 147.67878 | 799 ft | 129 kts | 274° |
| 2026-04-22 09:41 | -42.83679 | 147.66670 | 797 ft | 126 kts | 274° |
| 2026-04-22 09:41 | -42.83610 | 147.65490 | 804 ft | 127 kts | 274° |
| 2026-04-22 09:41 | -42.83540 | 147.64282 | 799 ft | 129 kts | 274° |
| 2026-04-22 09:42 | -42.83473 | 147.63078 | 799 ft | 126 kts | 273° |
| 2026-04-22 09:42 | -42.83410 | 147.61873 | 799 ft | 126 kts | 274° |
| 2026-04-22 09:42 | -42.83348 | 147.60676 | 801 ft | 127 kts | 273° |
| 2026-04-22 09:42 | -42.83287 | 147.59490 | 798 ft | 126 kts | 273° |
| 2026-04-22 09:43 | -42.83227 | 147.58299 | 801 ft | 126 kts | 273° |
| 2026-04-22 09:43 | -42.83166 | 147.57101 | 798 ft | 126 kts | 273° |
| 2026-04-22 09:43 | -42.83107 | 147.55902 | 800 ft | 127 kts | 273° |
| 2026-04-22 09:43 | -42.83047 | 147.54699 | 799 ft | 127 kts | 273° |
| 2026-04-22 09:44 | -42.82987 | 147.53496 | 799 ft | 127 kts | 273° |
| 2026-04-22 09:44 | -42.82928 | 147.52310 | 800 ft | 127 kts | 273° |
| 2026-04-22 09:44 | -42.82891 | 147.51108 | 774 ft | 129 kts | 267° |
| 2026-04-22 09:44 | -42.83010 | 147.49861 | 458 ft | 133 kts | 263° |
| 2026-04-22 09:45 | -42.83037 | 147.48737 | 266 ft | 105 kts | 283° |
| 2026-04-22 09:45 | -42.82885 | 147.48009 | 105 ft | 57 kts | 282° |
| 2026-04-22 09:45 | -42.82855 | 147.47709 | 51 ft | 11 kts | 213° |
| 2026-04-22 09:45 | -42.82862 | 147.47674 | 44 ft | 4 kts | 206° |
| 2026-04-22 09:46 | -42.82870 | 147.47670 | 36 ft | 0 kts | 194° |